Depesze METAR lotnisk w Polsce

METAR – format kodowanego raportu o pogodzie używany w meteorologii lotniczej i prognozie pogody. METAR jest akronimem od ang. Meteorological Aerodrome Report. Typowy METAR zawiera informację o temperaturze, ciśnieniu, temperaturze punktu rosy, sile i kierunku wiatru, opadzie, pokrywie chmur, wysokości podstawy chmur, widzialności, lecz może zawierać też inne informacje (np. stan dróg startowych).

Warszawa-Okęcie (EPWA)

METAR = EPWA 230130Z 05006KT CAVOK M07/M11 Q1025 NOSIG

STACJA......... EPWA - Warszawa-Okęcie (WAW)
POMIAR......... Fri Feb 23, 02:30 CET
WIATR.......... północno-wschodni (NE) z prędkością 11 km/h
WIDZIALNOŚĆ.... powyżej 10 kilometrów
CHMURY......... bezchmurne niebo
TEMPERATURA.... -7°C
T.PUNKTU ROSY.. -11°C
WILGOTNOŚĆ..... 73%
T.ODCZUWALNA... -12°C
CIŚNIENIE...... 1025 hPa
CIŚN.BEZWZGL... 1011 hPa
PROGNOZA....... bez nagłych zmian w ciągu 2h

Sprawdź też: Prognoza pogody Warszawa

Warszawa-Modlin (EPMO)

METAR = EPMO 230130Z VRB02KT CAVOK M09/M12 Q1025 =

STACJA......... EPMO - Warszawa-Modlin (WMI)
POMIAR......... Fri Feb 23, 02:30 CET
WIATR.......... zmienny z prędkością 4 km/h
WIDZIALNOŚĆ.... powyżej 10 kilometrów
CHMURY......... bezchmurne niebo
TEMPERATURA.... -9°C
T.PUNKTU ROSY.. -12°C
WILGOTNOŚĆ..... 79%
CIŚNIENIE...... 1025 hPa
CIŚN.BEZWZGL... 1012 hPa

Sprawdź też: Prognoza pogody Nowy Dwór Mazowiecki

Kraków-Balice (EPKK)

METAR = EPKK 230130Z 05010KT 8000 -SN BKN014 M04/M07 Q1020

STACJA......... EPKK - Kraków-Balice (KRK)
POMIAR......... Fri Feb 23, 02:30 CET
WIATR.......... północno-wschodni (NE) z prędkością 19 km/h
WIDZIALNOŚĆ.... 8000 metrów
WARUNKI........ słaby: śnieg 
CHMURY......... zachmurzenie średnie (5/8-7/8)
TEMPERATURA.... -4°C
T.PUNKTU ROSY.. -7°C
WILGOTNOŚĆ..... 80%
T.ODCZUWALNA... -10°C
CIŚNIENIE...... 1020 hPa
CIŚN.BEZWZGL... 990 hPa

Sprawdź też: Prognoza pogody Kraków

Łódź-Lublinek (EPLL)

METAR = EPLL 230130Z 05007KT 9000 NSC M09/M12 Q1024

STACJA......... EPLL - Łódź-Lublinek (LCJ)
POMIAR......... Fri Feb 23, 02:30 CET
WIATR.......... północno-wschodni (NE) z prędkością 13 km/h
WIDZIALNOŚĆ.... 9000 metrów
CHMURY......... brak istotnych chmur
TEMPERATURA.... -9°C
T.PUNKTU ROSY.. -12°C
WILGOTNOŚĆ..... 79%
T.ODCZUWALNA... -15°C
CIŚNIENIE...... 1024 hPa
CIŚN.BEZWZGL... 1001 hPa

Sprawdź też: Prognoza pogody Łódź

Wrocław-Strachowice (EPWR)

METAR = EPWR 230130Z 04004KT CAVOK M06/M09 Q1023

STACJA......... EPWR - Wrocław-Strachowice (WRO)
POMIAR......... Fri Feb 23, 02:30 CET
WIATR.......... północno-wschodni (NE) z prędkością 7 km/h
WIDZIALNOŚĆ.... powyżej 10 kilometrów
CHMURY......... bezchmurne niebo
TEMPERATURA.... -6°C
T.PUNKTU ROSY.. -9°C
WILGOTNOŚĆ..... 80%
T.ODCZUWALNA... -9°C
CIŚNIENIE...... 1023 hPa
CIŚN.BEZWZGL... 1008 hPa

Sprawdź też: Prognoza pogody Wrocław

Katowice-Pyrzowice (EPKT)

METAR = EPKT 230130Z 04008KT 9000 FEW025 OVC032 M07/M10 Q1021

STACJA......... EPKT - Katowice-Pyrzowice (KTW)
POMIAR......... Fri Feb 23, 02:30 CET
WIATR.......... północno-wschodni (NE) z prędkością 15 km/h
WIDZIALNOŚĆ.... 9000 metrów
CHMURY......... zachmurzenie całkowite (8/8)
TEMPERATURA.... -7°C
T.PUNKTU ROSY.. -10°C
WILGOTNOŚĆ..... 79%
T.ODCZUWALNA... -13°C
CIŚNIENIE...... 1021 hPa
CIŚN.BEZWZGL... 984 hPa

Sprawdź też: Prognoza pogody Katowice

Gdańsk (EPGD)

METAR = EPGD 230130Z VRB01KT 9999 SCT017 M11/M13 Q1027 R11/290095

STACJA......... EPGD - Gdańsk im. Lecha Wałęsy (GDN)
POMIAR......... Fri Feb 23, 02:30 CET
WIATR.......... zmienny z prędkością 2 km/h
WIDZIALNOŚĆ.... powyżej 10 kilometrów
CHMURY......... zachmurzenie małe (3/8-4/8)
TEMPERATURA.... -11°C
T.PUNKTU ROSY.. -13°C
WILGOTNOŚĆ..... 85%
CIŚNIENIE...... 1027 hPa
CIŚN.BEZWZGL... 1009 hPa
PAS STARTOWY... pas nr 11: woda na pasie na 51-100% pasa, mniej niż 1mm, dobra przyczepność hamowania

Sprawdź też: Prognoza pogody Gdańsk

Poznań-Ławica (EPPO)

METAR = EPPO 230130Z 05006KT 8000 NSC M09/M10 Q1025 R10/19//95

STACJA......... EPPO - Poznań-Ławica (POZ)
POMIAR......... Fri Feb 23, 02:30 CET
WIATR.......... północno-wschodni (NE) z prędkością 11 km/h
WIDZIALNOŚĆ.... 8000 metrów
CHMURY......... brak istotnych chmur
TEMPERATURA.... -9°C
T.PUNKTU ROSY.. -10°C
WILGOTNOŚĆ..... 93%
T.ODCZUWALNA... -14°C
CIŚNIENIE...... 1025 hPa
CIŚN.BEZWZGL... 1013 hPa
PAS STARTOWY... pas nr 10: wilgotny na 51-100% pasa, dobra przyczepność hamowania

Sprawdź też: Prognoza pogody Poznań

Rzeszów-Jasionka (EPRZ)

METAR = EPRZ 230130Z 05010KT 9999 -SN FEW009 OVC013 M04/M06 Q1021

STACJA......... EPRZ - Rzeszów-Jasionka (RZE)
POMIAR......... Fri Feb 23, 02:30 CET
WIATR.......... północno-wschodni (NE) z prędkością 19 km/h
WIDZIALNOŚĆ.... powyżej 10 kilometrów
WARUNKI........ słaby: śnieg 
CHMURY......... zachmurzenie całkowite (8/8)
TEMPERATURA.... -4°C
T.PUNKTU ROSY.. -6°C
WILGOTNOŚĆ..... 86%
T.ODCZUWALNA... -10°C
CIŚNIENIE...... 1021 hPa
CIŚN.BEZWZGL... 995 hPa

Sprawdź też: Prognoza pogody Rzeszów

Szczecin-Goleniów (EPSC)

METAR = EPSC 230130Z 07004KT 040V100 CAVOK M06/M10 Q1027

STACJA......... EPSC - Szczecin-Goleniów (SZZ)
POMIAR......... Fri Feb 23, 02:30 CET
WIATR.......... wschodni północno-wschodni (ENE) z prędkością 7 km/h
WIDZIALNOŚĆ.... powyżej 10 kilometrów
CHMURY......... bezchmurne niebo
TEMPERATURA.... -6°C
T.PUNKTU ROSY.. -10°C
WILGOTNOŚĆ..... 74%
T.ODCZUWALNA... -9°C
CIŚNIENIE...... 1027 hPa
CIŚN.BEZWZGL... 1021 hPa

Sprawdź też: Prognoza pogody Szczecin

Lublin-Świdnik (EPLB)

METAR = EPLB 230130Z 04006KT 8000 -SN BKN009 OVC018 M06/M07 Q1023 =

STACJA......... EPLB - Lublin-Świdnik (LUZ)
POMIAR......... Fri Feb 23, 02:30 CET
WIATR.......... północno-wschodni (NE) z prędkością 11 km/h
WIDZIALNOŚĆ.... 8000 metrów
WARUNKI........ słaby: śnieg 
CHMURY......... zachmurzenie całkowite (8/8)
TEMPERATURA.... -6°C
T.PUNKTU ROSY.. -7°C
WILGOTNOŚĆ..... 93%
T.ODCZUWALNA... -11°C
CIŚNIENIE...... 1023 hPa
CIŚN.BEZWZGL... 998 hPa

Sprawdź też: Prognoza pogody Lublin

Bydgoszcz-Szwederowo (EPBY)

METAR = EPBY 230130Z 05005KT 9000 NSC M09/M11 Q1026 =

STACJA......... EPBY - Bydgoszcz-Szwederowo (BZG)
POMIAR......... Fri Feb 23, 02:30 CET
WIATR.......... północno-wschodni (NE) z prędkością 9 km/h
WIDZIALNOŚĆ.... 9000 metrów
CHMURY......... brak istotnych chmur
TEMPERATURA.... -9°C
T.PUNKTU ROSY.. -11°C
WILGOTNOŚĆ..... 86%
T.ODCZUWALNA... -14°C
CIŚNIENIE...... 1026 hPa
CIŚN.BEZWZGL... 1017 hPa

Sprawdź też: Prognoza pogody Bydgoszcz

Zielona Góra-Babimost (EPZG)

METAR = EPZG 230130Z 02004KT 7000 NSC M06/M08 Q1025 =

STACJA......... EPZG - Zielona Góra-Babimost (IEG)
POMIAR......... Fri Feb 23, 02:30 CET
WIATR.......... północno północno-wschodni (NNE) z prędkością 7 km/h
WIDZIALNOŚĆ.... 7000 metrów
CHMURY......... brak istotnych chmur
TEMPERATURA.... -6°C
T.PUNKTU ROSY.. -8°C
WILGOTNOŚĆ..... 86%
T.ODCZUWALNA... -9°C
CIŚNIENIE...... 1025 hPa
CIŚN.BEZWZGL... 1018 hPa

Sprawdź też: Prognoza pogody Zielona Góra

Szymany Olsztyn-Mazury (EPSY)

METAR = EPSY 230130Z NIL=

STACJA......... EPSY - Olsztyn-Mazury (SZY)
POMIAR......... Fri Feb 23, 02:30 CET
DEPESZA........ brak aktualnej prognozy w treści depeszy

Sprawdź też: Prognoza pogody Olsztyn